createdAt,value
2018-04-29T00:00:05.227Z,46.4
2018-04-29T00:00:55.000Z,46.4
2018-04-29T00:01:45.051Z,46.4
2018-04-29T00:02:35.394Z,46.4
2018-04-29T00:03:25.481Z,46.4
2018-04-29T00:04:15.544Z,46.4
2018-04-29T00:05:05.298Z,46.4
2018-04-29T00:05:55.652Z,46.4
2018-04-29T00:06:45.184Z,46.4
2018-04-29T00:07:35.807Z,46.4
2018-04-29T00:08:25.582Z,46.4
2018-04-29T00:09:15.363Z,46.4
2018-04-29T00:10:06.004Z,46.4
2018-04-29T00:10:55.569Z,46.4
2018-04-29T00:11:46.089Z,46.4
2018-04-29T00:12:35.628Z,46.4
2018-04-29T00:13:25.954Z,46.4
2018-04-29T00:14:16.120Z,46.4
2018-04-29T00:15:06.365Z,46.5
2018-04-29T00:15:55.857Z,46.4
2018-04-29T00:16:46.216Z,46.4
2018-04-29T00:17:36.284Z,46.4
2018-04-29T00:18:26.351Z,46.5
2018-04-29T00:19:16.409Z,46.5
2018-04-29T00:20:06.475Z,46.5
2018-04-29T00:20:56.901Z,46.5
2018-04-29T00:21:46.864Z,46.5
2018-04-29T00:22:36.383Z,46.5
2018-04-29T00:23:25.918Z,46.5
2018-04-29T00:24:16.881Z,46.5
2018-04-29T00:25:06.603Z,46.5
2018-04-29T00:25:56.932Z,46.5
2018-04-29T00:26:47.260Z,46.5
2018-04-29T00:27:36.513Z,46.5
2018-04-29T00:28:26.846Z,46.6
2018-04-29T00:29:17.168Z,46.6
2018-04-29T00:30:07.260Z,46.6
2018-04-29T00:30:57.591Z,46.6
2018-04-29T00:31:47.669Z,46.6
2018-04-29T00:32:37.748Z,46.6
2018-04-29T00:33:27.511Z,46.6
2018-04-29T00:34:17.570Z,46.6
2018-04-29T00:35:07.638Z,46.6
2018-04-29T00:35:58.019Z,46.6
2018-04-29T00:36:47.492Z,46.6
2018-04-29T00:37:37.838Z,46.6
2018-04-29T00:38:27.622Z,46.6
2018-04-29T00:39:18.220Z,46.6
2018-04-29T00:40:07.465Z,46.6
2018-04-29T00:40:57.808Z,46.6
2018-04-29T00:41:48.152Z,46.6
2018-04-29T00:42:37.957Z,46.6
2018-04-29T00:43:28.304Z,46.6
2018-04-29T00:44:18.701Z,46.6
2018-04-29T00:45:08.683Z,46.6
2018-04-29T00:45:58.201Z,46.6
2018-04-29T00:46:48.804Z,46.6
2018-04-29T00:47:38.627Z,46.6
2018-04-29T00:48:28.945Z,46.6
2018-04-29T00:49:19.009Z,46.6
2018-04-29T00:50:07.998Z,46.6
2018-04-29T00:50:59.198Z,46.6
2018-04-29T00:51:48.920Z,46.7
2018-04-29T00:52:38.692Z,46.7
2018-04-29T00:53:29.295Z,46.7
2018-04-29T00:54:19.421Z,46.7
2018-04-29T00:55:09.456Z,46.7
2018-04-29T00:55:58.959Z,46.7
2018-04-29T00:56:49.313Z,46.7
2018-04-29T00:57:39.652Z,46.7
2018-04-29T00:58:29.446Z,46.7
2018-04-29T00:59:19.488Z,46.7
2018-04-29T01:00:09.836Z,46.7
2018-04-29T01:00:59.045Z,46.7
2018-04-29T01:01:49.708Z,46.7
2018-04-29T01:02:39.778Z,46.7
2018-04-29T01:03:30.101Z,46.7
2018-04-29T01:04:19.937Z,46.8
2018-04-29T01:05:09.971Z,46.8
2018-04-29T01:06:00.742Z,46.8
2018-04-29T01:06:50.151Z,46.8
2018-04-29T01:07:39.873Z,46.7
2018-04-29T01:08:30.554Z,46.8
2018-04-29T01:09:20.253Z,46.8
2018-04-29T01:10:10.674Z,46.8
2018-04-29T01:11:00.668Z,46.8
2018-04-29T01:11:50.198Z,46.8
2018-04-29T01:12:40.527Z,46.8
2018-04-29T01:13:30.340Z,46.8
2018-04-29T01:14:20.945Z,46.8
2018-04-29T01:15:10.739Z,46.8
2018-04-29T01:16:00.774Z,46.8
2018-04-29T01:16:50.635Z,46.8
2018-04-29T01:17:41.178Z,46.8
2018-04-29T01:18:31.014Z,46.8
2018-04-29T01:19:21.091Z,46.8
2018-04-29T01:20:11.129Z,46.8
2018-04-29T01:21:01.178Z,46.8
2018-04-29T01:21:51.514Z,46.8
2018-04-29T01:22:41.581Z,46.8
2018-04-29T01:23:31.382Z,46.8
2018-04-29T01:24:20.871Z,46.8
2018-04-29T01:25:11.534Z,46.8
2018-04-29T01:26:01.567Z,46.8
2018-04-29T01:26:51.911Z,46.8
2018-04-29T01:27:41.974Z,46.8
2018-04-29T01:28:32.062Z,46.8
2018-04-29T01:29:21.853Z,46.8
2018-04-29T01:30:12.153Z,46.8
2018-04-29T01:31:01.396Z,46.8
2018-04-29T01:31:52.031Z,46.8
2018-04-29T01:32:42.367Z,46.8
2018-04-29T01:33:32.445Z,46.8
2018-04-29T01:34:22.471Z,46.8
2018-04-29T01:35:12.551Z,46.8
2018-04-29T01:36:02.344Z,46.9
2018-04-29T01:36:52.666Z,46.8
2018-04-29T01:37:42.744Z,46.8
2018-04-29T01:38:32.516Z,46.8
2018-04-29T01:39:22.895Z,46.8
2018-04-29T01:40:12.716Z,46.8
2018-04-29T01:41:02.778Z,46.9
2018-04-29T01:41:52.831Z,46.9
2018-04-29T01:42:42.023Z,46.8
2018-04-29T01:43:32.341Z,46.9
2018-04-29T01:44:22.709Z,46.9
2018-04-29T01:45:13.053Z,46.9
2018-04-29T01:46:03.113Z,46.9
2018-04-29T01:46:52.902Z,46.9
2018-04-29T01:47:43.249Z,46.9
2018-04-29T01:48:33.592Z,46.9
2018-04-29T01:49:23.643Z,46.9
2018-04-29T01:50:13.724Z,46.9
2018-04-29T01:51:03.809Z,46.9
2018-04-29T01:51:53.577Z,46.9
2018-04-29T01:52:43.891Z,46.9
2018-04-29T01:53:33.140Z,46.9
2018-04-29T01:54:24.026Z,46.9
2018-04-29T01:55:13.851Z,46.9
2018-04-29T01:56:03.913Z,46.9
2018-04-29T01:56:53.977Z,46.9
2018-04-29T01:57:44.035Z,46.9
2018-04-29T01:58:33.543Z,46.9
2018-04-29T01:59:23.594Z,46.9
2018-04-29T02:00:14.241Z,46.9
2018-04-29T02:01:04.550Z,46.9
2018-04-29T02:01:54.631Z,46.9
2018-04-29T02:02:44.433Z,46.9
2018-04-29T02:03:34.284Z,46.9
2018-04-29T02:04:24.050Z,46.9
2018-04-29T02:05:14.402Z,46.9
2018-04-29T02:06:04.471Z,46.9
2018-04-29T02:06:54.231Z,46.9
2018-04-29T02:07:44.576Z,46.9
2018-04-29T02:08:34.385Z,46.9
2018-04-29T02:09:24.732Z,46.9
2018-04-29T02:10:14.487Z,46.9
2018-04-29T02:11:05.078Z,46.9
2018-04-29T02:11:55.138Z,46.9
2018-04-29T02:12:45.214Z,46.9
2018-04-29T02:13:34.732Z,46.9
2018-04-29T02:14:25.312Z,46.9
2018-04-29T02:15:15.442Z,46.9
2018-04-29T02:16:05.730Z,46.9
2018-04-29T02:16:55.782Z,46.9
2018-04-29T02:17:45.607Z,46.9
2018-04-29T02:18:35.652Z,46.9
2018-04-29T02:19:25.984Z,46.9
2018-04-29T02:20:15.793Z,46.9
2018-04-29T02:21:05.560Z,46.9
2018-04-29T02:21:56.172Z,46.9
2018-04-29T02:22:45.418Z,46.9
2018-04-29T02:23:36.004Z,46.9
2018-04-29T02:24:26.371Z,46.9
2018-04-29T02:25:16.432Z,46.9
2018-04-29T02:26:05.943Z,46.9
2018-04-29T02:26:56.356Z,46.9
2018-04-29T02:27:46.096Z,46.9
2018-04-29T02:28:36.433Z,46.9
2018-04-29T02:29:26.514Z,46.9
2018-04-29T02:30:16.589Z,46.9
2018-04-29T02:31:06.915Z,47
2018-04-29T02:31:56.691Z,46.9
2018-04-29T02:32:47.056Z,46.9
2018-04-29T02:33:36.561Z,47
2018-04-29T02:34:26.036Z,47
2018-04-29T02:35:17.219Z,46.9
2018-04-29T02:36:07.293Z,47
2018-04-29T02:36:57.378Z,47
2018-04-29T02:37:47.405Z,47
2018-04-29T02:38:37.301Z,47
2018-04-29T02:39:27.333Z,47
2018-04-29T02:40:17.330Z,47
2018-04-29T02:41:07.423Z,47
2018-04-29T02:41:57.469Z,46.9
2018-04-29T02:42:47.520Z,46.9
2018-04-29T02:43:37.602Z,46.9
2018-04-29T02:44:27.960Z,47
2018-04-29T02:45:17.727Z,47
2018-04-29T02:46:07.594Z,47
2018-04-29T02:46:57.869Z,47
2018-04-29T02:47:48.212Z,47
2018-04-29T02:48:38.258Z,47
2018-04-29T02:49:28.049Z,47
2018-04-29T02:50:18.412Z,47
2018-04-29T02:51:08.479Z,47
2018-04-29T02:51:58.512Z,47
2018-04-29T02:52:48.334Z,47
2018-04-29T02:53:38.409Z,47
2018-04-29T02:54:28.456Z,47
2018-04-29T02:55:18.558Z,47
2018-04-29T02:56:08.583Z,47
2018-04-29T02:56:58.968Z,47
2018-04-29T02:57:49.074Z,47
2018-04-29T02:58:39.063Z,47
2018-04-29T02:59:28.553Z,47
2018-04-29T03:00:18.600Z,47
2018-04-29T03:01:08.691Z,47
2018-04-29T03:01:59.345Z,47
2018-04-29T03:02:49.395Z,47
2018-04-29T03:03:39.465Z,47
2018-04-29T03:04:29.232Z,47
2018-04-29T03:05:19.284Z,47
2018-04-29T03:06:09.080Z,47
2018-04-29T03:06:59.722Z,47
2018-04-29T03:07:49.752Z,47
2018-04-29T03:08:39.527Z,47
2018-04-29T03:09:29.317Z,47
2018-04-29T03:10:19.384Z,47
2018-04-29T03:11:10.053Z,47
2018-04-29T03:11:59.519Z,47
2018-04-29T03:12:49.882Z,47
2018-04-29T03:13:39.909Z,47
2018-04-29T03:14:30.318Z,47
2018-04-29T03:15:20.406Z,47
2018-04-29T03:16:10.099Z,47
2018-04-29T03:16:59.883Z,47
2018-04-29T03:17:50.272Z,47
2018-04-29T03:18:40.630Z,47
2018-04-29T03:19:30.093Z,47
2018-04-29T03:20:20.173Z,47
2018-04-29T03:21:10.201Z,47
2018-04-29T03:22:00.567Z,47
2018-04-29T03:22:50.627Z,47
2018-04-29T03:23:40.957Z,47
2018-04-29T03:24:31.029Z,47
2018-04-29T03:25:20.824Z,47
2018-04-29T03:26:11.172Z,47
2018-04-29T03:27:00.924Z,47
2018-04-29T03:27:50.990Z,47
2018-04-29T03:28:41.356Z,47
2018-04-29T03:29:31.192Z,47
2018-04-29T03:30:21.547Z,47
2018-04-29T03:31:11.287Z,47
2018-04-29T03:32:01.068Z,47
2018-04-29T03:32:51.119Z,47
2018-04-29T03:33:41.734Z,47
2018-04-29T03:34:31.812Z,47
2018-04-29T03:35:21.651Z,47
2018-04-29T03:36:11.464Z,47
2018-04-29T03:37:01.599Z,47
2018-04-29T03:37:51.604Z,47
2018-04-29T03:38:41.364Z,47
2018-04-29T03:39:31.709Z,47
2018-04-29T03:40:21.773Z,47
2018-04-29T03:41:11.550Z,47
2018-04-29T03:42:01.917Z,47
2018-04-29T03:42:52.483Z,47
2018-04-29T03:43:42.555Z,47
2018-04-29T03:44:32.579Z,47
2018-04-29T03:45:22.078Z,47
2018-04-29T03:46:12.733Z,47
2018-04-29T03:47:02.509Z,47
2018-04-29T03:47:52.914Z,47
2018-04-29T03:48:42.625Z,47
2018-04-29T03:49:32.716Z,47
2018-04-29T03:50:22.779Z,47
2018-04-29T03:51:12.826Z,47
2018-04-29T03:52:03.171Z,47
2018-04-29T03:52:52.981Z,47
2018-04-29T03:53:43.323Z,47
2018-04-29T03:54:33.360Z,47
2018-04-29T03:55:23.443Z,47
2018-04-29T03:56:12.925Z,47
2018-04-29T03:57:03.078Z,47
2018-04-29T03:57:53.343Z,47
2018-04-29T03:58:43.753Z,47
2018-04-29T03:59:33.478Z,47
2018-04-29T04:00:23.522Z,47
2018-04-29T04:01:13.593Z,47
2018-04-29T04:02:03.963Z,47
2018-04-29T04:02:54.108Z,47
2018-04-29T04:03:43.529Z,47
2018-04-29T04:04:34.180Z,47
2018-04-29T04:05:23.369Z,47
2018-04-29T04:06:14.242Z,47
2018-04-29T04:07:04.353Z,47
2018-04-29T04:07:53.544Z,47
2018-04-29T04:08:44.177Z,47
2018-04-29T04:09:34.325Z,47
2018-04-29T04:10:24.581Z,47
2018-04-29T04:11:14.667Z,47
2018-04-29T04:12:04.699Z,47
2018-04-29T04:12:54.503Z,47
2018-04-29T04:13:44.863Z,47
2018-04-29T04:14:34.878Z,47
2018-04-29T04:15:24.966Z,47
2018-04-29T04:16:14.767Z,47
2018-04-29T04:17:04.550Z,47
2018-04-29T04:17:54.610Z,47
2018-04-29T04:18:44.969Z,47
2018-04-29T04:19:34.486Z,47
2018-04-29T04:20:25.372Z,47
2018-04-29T04:21:14.883Z,47
2018-04-29T04:22:05.513Z,47
2018-04-29T04:22:55.583Z,47
2018-04-29T04:23:46.094Z,47
2018-04-29T04:24:35.730Z,47
2018-04-29T04:25:25.739Z,47
2018-04-29T04:26:15.798Z,47
2018-04-29T04:27:05.337Z,47
2018-04-29T04:27:55.965Z,47
2018-04-29T04:28:46.027Z,47
2018-04-29T04:29:36.091Z,47
2018-04-29T04:30:25.589Z,47
2018-04-29T04:31:16.268Z,47
2018-04-29T04:32:06.272Z,47
2018-04-29T04:32:56.342Z,47
2018-04-29T04:33:45.866Z,47
2018-04-29T04:34:36.466Z,47
2018-04-29T04:35:26.251Z,46.9
2018-04-29T04:36:16.579Z,47
2018-04-29T04:37:05.816Z,47
2018-04-29T04:37:56.726Z,47
2018-04-29T04:38:46.515Z,47
2018-04-29T04:39:36.865Z,46.9
2018-04-29T04:40:26.069Z,47
2018-04-29T04:41:16.428Z,47
2018-04-29T04:42:07.033Z,47
2018-04-29T04:42:56.868Z,47
2018-04-29T04:43:47.152Z,47
2018-04-29T04:44:36.678Z,47
2018-04-29T04:45:27.336Z,46.9
2018-04-29T04:46:17.396Z,47
2018-04-29T04:47:07.423Z,47
2018-04-29T04:47:56.942Z,46.9
2018-04-29T04:49:23.055Z,47
2018-04-29T04:49:37.643Z,46.9
2018-04-29T04:50:27.180Z,46.9
2018-04-29T04:51:16.910Z,46.9
2018-04-29T04:52:07.813Z,46.9
2018-04-29T04:52:57.362Z,47
2018-04-29T04:53:47.947Z,47
2018-04-29T04:54:38.056Z,46.9
2018-04-29T04:55:28.086Z,46.9
2018-04-29T04:56:18.148Z,47
2018-04-29T04:57:07.727Z,46.9
2018-04-29T04:57:58.360Z,46.9
2018-04-29T04:58:48.379Z,46.9
2018-04-29T04:59:38.449Z,46.9
2018-04-29T05:00:27.922Z,46.9
2018-04-29T05:01:18.022Z,46.9
2018-04-29T05:02:08.073Z,46.9
2018-04-29T05:02:58.406Z,46.9
2018-04-29T05:03:48.752Z,46.9
2018-04-29T05:04:38.855Z,46.9
2018-04-29T05:05:28.859Z,46.9
2018-04-29T05:06:18.665Z,46.9
2018-04-29T05:07:08.724Z,46.9
2018-04-29T05:07:58.779Z,46.9
2018-04-29T05:08:48.562Z,46.9
2018-04-29T05:09:38.657Z,46.9
2018-04-29T05:10:29.287Z,46.9
2018-04-29T05:11:18.838Z,46.9
2018-04-29T05:12:08.829Z,46.9
2018-04-29T05:12:59.164Z,46.9
2018-04-29T05:13:50.480Z,46.9
2018-04-29T05:14:39.037Z,46.9
2018-04-29T05:15:29.668Z,46.9
2018-04-29T05:16:19.724Z,46.9
2018-04-29T05:17:09.772Z,46.9
2018-04-29T05:17:59.271Z,46.9
2018-04-29T05:18:49.407Z,46.9
2018-04-29T05:19:39.990Z,46.9
2018-04-29T05:20:30.104Z,46.9
2018-04-29T05:21:20.087Z,46.9
2018-04-29T05:22:10.319Z,46.9
2018-04-29T05:23:00.239Z,46.9
2018-04-29T05:23:50.286Z,46.9
2018-04-29T05:24:40.067Z,46.9
2018-04-29T05:25:30.138Z,46.9
2018-04-29T05:26:20.213Z,46.9
2018-04-29T05:27:10.525Z,46.9
2018-04-29T05:28:00.038Z,46.9
2018-04-29T05:28:50.674Z,46.9
2018-04-29T05:29:40.426Z,46.9
2018-04-29T05:30:30.783Z,46.9
2018-04-29T05:31:20.880Z,46.9
2018-04-29T05:32:10.429Z,46.9
2018-04-29T05:33:00.971Z,46.9
2018-04-29T05:33:50.207Z,46.9
2018-04-29T05:34:40.931Z,46.9
2018-04-29T05:35:31.946Z,46.9
2018-04-29T05:36:21.236Z,46.9
2018-04-29T05:37:11.026Z,46.9
2018-04-29T05:38:01.110Z,46.9
2018-04-29T05:38:51.417Z,46.9
2018-04-29T05:39:40.665Z,46.9
2018-04-29T05:40:31.286Z,46.9
2018-04-29T05:41:21.637Z,46.9
2018-04-29T05:42:11.679Z,46.9
2018-04-29T05:43:01.752Z,46.9
2018-04-29T05:43:51.541Z,46.9
2018-04-29T05:44:41.619Z,46.9
2018-04-29T05:45:31.943Z,46.9
2018-04-29T05:46:22.024Z,46.9
2018-04-29T05:47:11.804Z,46.9
2018-04-29T05:48:01.874Z,46.9
2018-04-29T05:48:51.947Z,46.9
2018-04-29T05:49:42.276Z,46.9
2018-04-29T05:50:32.354Z,46.9
2018-04-29T05:51:22.426Z,46.9
2018-04-29T05:52:11.936Z,46.9
2018-04-29T05:53:01.989Z,46.9
2018-04-29T05:53:52.062Z,46.9
2018-04-29T05:54:42.430Z,46.8
2018-04-29T05:55:32.185Z,46.9
2018-04-29T05:56:22.251Z,46.8
2018-04-29T05:57:12.589Z,46.8
2018-04-29T05:58:02.942Z,46.8
2018-04-29T05:58:52.451Z,46.9
2018-04-29T05:59:43.057Z,46.8
2018-04-29T06:00:32.887Z,46.8
2018-04-29T06:01:22.643Z,46.8
2018-04-29T06:02:13.267Z,46.8
2018-04-29T06:03:03.057Z,46.8
2018-04-29T06:03:53.120Z,46.8
2018-04-29T06:04:43.465Z,46.8
2018-04-29T06:05:32.967Z,46.8
2018-04-29T06:06:24.017Z,46.8
2018-04-29T06:07:13.677Z,46.8
2018-04-29T06:08:03.693Z,46.8
2018-04-29T06:08:53.761Z,46.8
2018-04-29T06:09:43.837Z,46.8
2018-04-29T06:10:33.634Z,46.8
2018-04-29T06:11:23.669Z,46.8
2018-04-29T06:12:13.777Z,46.8
2018-04-29T06:13:04.094Z,46.8
2018-04-29T06:13:53.924Z,46.8
2018-04-29T06:14:44.199Z,46.8
2018-04-29T06:15:34.311Z,46.8
2018-04-29T06:16:23.820Z,46.8
2018-04-29T06:17:14.407Z,46.8
2018-04-29T06:18:04.196Z,46.8
2018-04-29T06:18:53.818Z,46.8
2018-04-29T06:19:44.376Z,46.8
2018-04-29T06:20:35.183Z,46.8
2018-04-29T06:21:24.729Z,46.8
2018-04-29T06:22:14.527Z,46.8
2018-04-29T06:23:04.015Z,46.8
2018-04-29T06:23:54.950Z,46.8
2018-04-29T06:24:44.733Z,46.8
2018-04-29T06:25:34.797Z,46.8
2018-04-29T06:26:24.874Z,46.8
2018-04-29T06:27:15.185Z,46.8
2018-04-29T06:28:05.005Z,46.8
2018-04-29T06:28:55.048Z,46.8
2018-04-29T06:29:45.393Z,46.8
2018-04-29T06:30:35.252Z,46.8
2018-04-29T06:31:25.230Z,46.8
2018-04-29T06:32:15.608Z,46.7
2018-04-29T06:33:05.082Z,46.6
2018-04-29T06:33:55.428Z,46.5
2018-04-29T06:34:45.805Z,46.4
2018-04-29T06:35:35.302Z,46.4
2018-04-29T06:36:25.640Z,46.4
2018-04-29T06:37:15.399Z,46.3
2018-04-29T06:38:05.487Z,46.3
2018-04-29T06:38:56.450Z,46.3
2018-04-29T06:39:46.163Z,46.3
2018-04-29T06:40:36.248Z,46.3
2018-04-29T06:41:26.026Z,46.3
2018-04-29T06:42:16.122Z,46.3
2018-04-29T06:43:06.411Z,46.3
2018-04-29T06:43:56.203Z,46.2
2018-04-29T06:44:46.569Z,46.3
2018-04-29T06:45:36.324Z,46.3
2018-04-29T06:46:26.409Z,46.2
2018-04-29T06:47:16.795Z,46.2
2018-04-29T06:48:06.369Z,46.2
2018-04-29T06:48:56.895Z,46.2
2018-04-29T06:49:46.964Z,46.2
2018-04-29T06:50:37.039Z,46.2
2018-04-29T06:51:26.632Z,46.2
2018-04-29T06:52:16.613Z,46.2
2018-04-29T06:53:06.933Z,46.3
2018-04-29T06:53:57.300Z,46.3
2018-04-29T06:54:47.076Z,46.3
2018-04-29T06:55:37.410Z,46.3
2018-04-29T06:56:26.923Z,46.3
2018-04-29T06:57:17.574Z,46.3
2018-04-29T06:58:07.623Z,46.3
2018-04-29T06:58:57.430Z,46.2
2018-04-29T06:59:47.481Z,46.2
2018-04-29T07:00:37.553Z,46.2
2018-04-29T07:01:27.607Z,46.2
2018-04-29T07:02:17.934Z,46.2
2018-04-29T07:03:07.170Z,46.2
2018-04-29T07:03:57.304Z,46.2
2018-04-29T07:04:47.889Z,46.2
2018-04-29T07:05:37.951Z,46.2
2018-04-29T07:06:28.022Z,46.2
2018-04-29T07:07:17.588Z,46.3
2018-04-29T07:08:08.584Z,46.4
2018-04-29T07:08:57.413Z,46.5
2018-04-29T07:09:48.248Z,46.6
2018-04-29T07:10:38.621Z,46.6
2018-04-29T07:11:28.356Z,46.6
2018-04-29T07:12:18.437Z,46.7
2018-04-29T07:13:08.792Z,46.7
2018-04-29T07:13:58.864Z,46.7
2018-04-29T07:14:48.494Z,46.7
2018-04-29T07:15:38.979Z,46.7
2018-04-29T07:16:28.797Z,46.7
2018-04-29T07:17:18.859Z,46.7
2018-04-29T07:18:08.660Z,46.7
2018-04-29T07:18:58.706Z,46.8
2018-04-29T07:19:49.037Z,46.8
2018-04-29T07:20:39.378Z,46.9
2018-04-29T07:21:28.977Z,47.1
2018-04-29T07:22:19.239Z,47.1
2018-04-29T07:23:09.310Z,47.3
2018-04-29T07:23:59.687Z,47.3
2018-04-29T07:24:49.750Z,47.4
2018-04-29T07:25:39.502Z,47.5
2018-04-29T07:26:29.581Z,47.6
2018-04-29T07:27:19.915Z,47.6
2018-04-29T07:28:09.988Z,47.7
2018-04-29T07:28:59.485Z,47.8
2018-04-29T07:29:49.637Z,47.9
2018-04-29T07:30:39.617Z,48
2018-04-29T07:31:30.262Z,48.1
2018-04-29T07:32:20.345Z,48.1
2018-04-29T07:33:10.100Z,48.2
2018-04-29T07:33:59.958Z,48.3
2018-04-29T07:34:50.508Z,48.4
2018-04-29T07:35:40.581Z,48.5
2018-04-29T07:36:30.162Z,48.5
2018-04-29T07:37:20.702Z,48.6
2018-04-29T07:38:10.520Z,48.7
2018-04-29T07:39:00.557Z,48.8
2018-04-29T07:39:49.901Z,48.9
2018-04-29T07:40:41.017Z,48.9
2018-04-29T07:41:31.074Z,49.1
2018-04-29T07:42:20.275Z,49.1
2018-04-29T07:43:11.177Z,49.2
2018-04-29T07:44:00.964Z,49.3
2018-04-29T07:44:51.302Z,49.4
2018-04-29T07:45:40.861Z,49.4
2018-04-29T07:46:31.928Z,49.5
2018-04-29T07:47:20.692Z,49.6
2018-04-29T07:48:11.372Z,49.7
2018-04-29T07:49:01.649Z,49.8
2018-04-29T07:49:51.776Z,49.8
2018-04-29T07:50:41.768Z,49.9
2018-04-29T07:51:31.826Z,50
2018-04-29T07:52:22.285Z,50.1
2018-04-29T07:53:11.980Z,50.2
2018-04-29T07:54:01.792Z,50.3
2018-04-29T07:54:51.939Z,50.3
2018-04-29T07:55:41.919Z,50.4
2018-04-29T07:56:31.974Z,50.5
2018-04-29T07:57:22.283Z,50.6
2018-04-29T07:58:12.348Z,50.7
2018-04-29T07:59:02.154Z,50.8
2018-04-29T07:59:52.218Z,50.8
2018-04-29T08:00:43.045Z,50.9
2018-04-29T08:01:32.638Z,51
2018-04-29T08:02:22.685Z,51.1
2018-04-29T08:03:12.215Z,51.2
2018-04-29T08:04:01.709Z,51.3
2018-04-29T08:04:52.635Z,51.3
2018-04-29T08:05:42.683Z,51.4
2018-04-29T08:06:32.456Z,51.5
2018-04-29T08:07:22.519Z,51.6
2018-04-29T08:08:13.182Z,51.7
2018-04-29T08:09:03.201Z,51.8
2018-04-29T08:09:53.398Z,51.8
2018-04-29T08:11:33.414Z,52
2018-04-29T08:12:23.502Z,52.1
2018-04-29T08:13:13.531Z,52.1
2018-04-29T08:14:03.408Z,52.2
2018-04-29T08:14:53.478Z,52.3
2018-04-29T08:16:33.555Z,52.4
2018-04-29T08:17:23.226Z,52.5
2018-04-29T08:18:13.364Z,52.6
2018-04-29T08:19:04.024Z,52.7
2018-04-29T08:19:53.769Z,52.8
2018-04-29T08:20:43.932Z,52.8
2018-04-29T08:21:33.422Z,52.9
2018-04-29T08:22:23.990Z,52.9
2018-04-29T08:23:13.832Z,53
2018-04-29T08:24:03.921Z,53.1
2018-04-29T08:24:53.425Z,53.2
2018-04-29T08:25:43.972Z,53.3
2018-04-29T08:26:34.325Z,53.3
2018-04-29T08:27:24.395Z,53.4
2018-04-29T08:28:14.725Z,53.4
2018-04-29T08:29:04.516Z,53.5
2018-04-29T08:29:54.860Z,53.6
2018-04-29T08:30:44.092Z,53.7
2018-04-29T08:31:34.983Z,53.8
2018-04-29T08:32:24.802Z,53.8
2018-04-29T08:33:15.123Z,53.9
2018-04-29T08:34:04.915Z,53.9
2018-04-29T08:34:55.244Z,54
2018-04-29T08:35:44.752Z,54.1
2018-04-29T08:36:34.892Z,54.1
2018-04-29T08:37:25.493Z,54.2
2018-04-29T08:38:15.552Z,54.3
2018-04-29T08:39:05.308Z,54.3
2018-04-29T08:39:55.379Z,54.4
2018-04-29T08:40:45.445Z,54.4
2018-04-29T08:41:35.801Z,54.6
2018-04-29T08:42:25.032Z,54.6
2018-04-29T08:43:16.032Z,54.7
2018-04-29T08:44:05.702Z,54.8
2018-04-29T08:44:55.760Z,54.8
2018-04-29T08:45:45.823Z,54.9
2018-04-29T08:46:36.240Z,54.9
2018-04-29T08:47:25.959Z,55
2018-04-29T08:48:16.299Z,55.1
2018-04-29T08:49:06.388Z,55.1
2018-04-29T08:49:56.456Z,55.3
2018-04-29T08:50:46.496Z,55.3
2018-04-29T08:51:36.580Z,55.4
2018-04-29T08:52:26.632Z,55.4
2018-04-29T08:53:16.700Z,55.5
2018-04-29T08:54:06.481Z,55.6
2018-04-29T08:54:57.522Z,55.6
2018-04-29T08:55:46.622Z,55.7
2018-04-29T08:56:36.978Z,55.8
2018-04-29T08:57:26.782Z,55.8
2018-04-29T08:58:16.632Z,55.9
2018-04-29T08:59:06.868Z,55.9
2018-04-29T08:59:57.226Z,56
2018-04-29T09:00:47.000Z,56.1
2018-04-29T09:01:37.568Z,56.1
2018-04-29T09:02:26.853Z,56.3
2018-04-29T09:03:16.948Z,56.3
2018-04-29T09:04:07.571Z,56.4
2018-04-29T09:04:57.091Z,56.4
2018-04-29T09:05:47.448Z,56.4
2018-04-29T09:06:37.514Z,56.6
2018-04-29T09:07:27.824Z,56.6
2018-04-29T09:08:17.634Z,56.7
2018-04-29T09:09:07.964Z,56.8
2018-04-29T09:09:57.743Z,56.8
2018-04-29T09:10:47.833Z,56.9
2018-04-29T09:11:38.167Z,56.9
2018-04-29T09:12:28.244Z,57
2018-04-29T09:13:18.025Z,57.1
2018-04-29T09:14:08.112Z,57.1
2018-04-29T09:14:58.156Z,57.2
2018-04-29T09:15:48.233Z,57.3
2018-04-29T09:16:38.308Z,57.3
2018-04-29T09:17:28.638Z,57.4
2018-04-29T09:18:18.705Z,57.4
2018-04-29T09:19:08.757Z,57.5
2018-04-29T09:19:58.844Z,57.6
2018-04-29T09:20:48.638Z,57.6
2018-04-29T09:21:38.674Z,57.6
2018-04-29T09:22:28.764Z,57.7
2018-04-29T09:24:09.242Z,57.8
2018-04-29T09:24:59.208Z,57.9
2018-04-29T09:25:48.815Z,57.9
2018-04-29T09:26:39.368Z,58
2018-04-29T09:27:29.434Z,58
2018-04-29T09:28:19.273Z,58.1
2018-04-29T09:29:08.975Z,58.1
2018-04-29T09:29:59.619Z,58.2
2018-04-29T09:30:49.099Z,58.3
2018-04-29T09:31:39.729Z,58.3
2018-04-29T09:32:29.785Z,58.3
2018-04-29T09:33:19.311Z,58.4
2018-04-29T09:34:09.405Z,58.4
2018-04-29T09:34:59.767Z,58.5
2018-04-29T09:36:39.882Z,58.6
2018-04-29T09:37:30.219Z,58.6
2018-04-29T09:38:20.290Z,58.7
2018-04-29T09:39:10.352Z,58.8
2018-04-29T09:39:59.869Z,58.8
2018-04-29T09:40:50.022Z,58.9
2018-04-29T09:41:40.049Z,58.9
2018-04-29T09:42:30.636Z,59
2018-04-29T09:43:20.891Z,59
2018-04-29T09:44:10.758Z,59.1
2018-04-29T09:45:00.265Z,59.1
2018-04-29T09:45:50.032Z,59.2
2018-04-29T09:46:40.953Z,59.3
2018-04-29T09:47:30.722Z,59.3
2018-04-29T09:48:21.060Z,59.4
2018-04-29T09:49:10.308Z,59.4
2018-04-29T09:50:00.915Z,59.5
2018-04-29T09:50:50.517Z,59.5
2018-04-29T09:51:41.364Z,59.6
2018-04-29T09:52:31.436Z,59.6
2018-04-29T09:53:21.194Z,59.7
2018-04-29T09:54:11.535Z,59.8
2018-04-29T09:55:01.319Z,59.8
2018-04-29T09:55:51.683Z,59.8
2018-04-29T09:56:41.453Z,59.9
2018-04-29T09:57:30.675Z,59.9
2018-04-29T09:58:21.345Z,60
2018-04-29T09:59:11.650Z,60.1
2018-04-29T10:00:01.729Z,60.1
2018-04-29T10:00:51.595Z,60.1
2018-04-29T10:01:41.112Z,60.2
2018-04-29T10:02:31.727Z,60.3
2018-04-29T10:03:22.031Z,60.3
2018-04-29T10:04:12.070Z,60.4
2018-04-29T10:05:01.851Z,60.4
2018-04-29T10:05:52.480Z,60.4
2018-04-29T10:06:42.541Z,60.5
2018-04-29T10:07:31.773Z,60.6
2018-04-29T10:08:22.640Z,60.6
2018-04-29T10:09:12.496Z,60.7
2018-04-29T10:10:02.820Z,60.8
2018-04-29T10:10:52.037Z,60.8
2018-04-29T10:11:42.939Z,60.8
2018-04-29T10:12:33.003Z,60.9
2018-04-29T10:13:23.074Z,60.9
2018-04-29T10:14:12.868Z,61
2018-04-29T10:15:02.640Z,61.1
2018-04-29T10:15:53.286Z,61.1
2018-04-29T10:16:42.776Z,61.1
2018-04-29T10:17:32.838Z,61.2
2018-04-29T10:18:23.516Z,61.3
2018-04-29T10:19:13.551Z,61.3
2018-04-29T10:20:03.613Z,61.4
2018-04-29T10:20:52.831Z,61.4
2018-04-29T10:21:43.735Z,61.5
2018-04-29T10:22:33.243Z,61.5
2018-04-29T10:23:23.923Z,61.6
2018-04-29T10:24:13.644Z,61.6
2018-04-29T10:25:03.715Z,61.7
2018-04-29T10:25:54.163Z,61.8
2018-04-29T10:26:44.214Z,61.8
2018-04-29T10:27:33.927Z,61.9
2018-04-29T10:28:23.977Z,61.9
2018-04-29T10:29:14.350Z,61.9
2018-04-29T10:30:04.437Z,62
2018-04-29T10:30:53.637Z,62.1
2018-04-29T10:31:44.249Z,62.1
2018-04-29T10:32:34.401Z,62.1
2018-04-29T10:33:24.428Z,62.2
2018-04-29T10:34:14.230Z,62.3
2018-04-29T10:35:04.239Z,62.3
2018-04-29T10:35:54.571Z,62.4
2018-04-29T10:36:44.357Z,62.4
2018-04-29T10:37:34.991Z,62.4
2018-04-29T10:38:24.184Z,62.5
2018-04-29T10:39:14.866Z,62.6
2018-04-29T10:40:04.914Z,62.6
2018-04-29T10:40:54.643Z,62.7
2018-04-29T10:41:44.754Z,62.7
2018-04-29T10:42:35.367Z,62.8
2018-04-29T10:43:25.483Z,62.8
2018-04-29T10:44:15.609Z,62.9
2018-04-29T10:45:04.996Z,62.9
2018-04-29T10:45:55.457Z,62.9
2018-04-29T10:46:45.684Z,63
2018-04-29T10:47:35.213Z,63.1
2018-04-29T10:48:25.552Z,63.1
2018-04-29T10:49:15.629Z,63.1
2018-04-29T10:50:06.001Z,63.2
2018-04-29T10:50:55.479Z,63.3
2018-04-29T10:51:45.544Z,63.3
2018-04-29T10:52:36.582Z,63.3
2018-04-29T10:53:25.120Z,63.4
2018-04-29T10:54:16.297Z,63.4
2018-04-29T10:55:06.120Z,63.5
2018-04-29T10:55:56.150Z,63.5
2018-04-29T10:56:46.328Z,63.6
2018-04-29T10:57:36.016Z,63.6
2018-04-29T10:58:25.792Z,63.6
2018-04-29T10:59:16.428Z,63.7
2018-04-29T11:00:06.807Z,63.8
2018-04-29T11:00:56.015Z,63.8
2018-04-29T11:01:46.652Z,63.8
2018-04-29T11:02:36.682Z,63.9
2018-04-29T11:03:26.305Z,63.9
2018-04-29T11:04:17.691Z,64
2018-04-29T11:05:06.615Z,64
2018-04-29T11:05:56.979Z,64.1
2018-04-29T11:06:47.347Z,64.1
2018-04-29T11:07:36.849Z,64.1
2018-04-29T11:08:27.158Z,64.2
2018-04-29T11:09:17.571Z,64.2
2018-04-29T11:10:07.299Z,64.3
2018-04-29T11:10:57.068Z,64.3
2018-04-29T11:11:48.311Z,64.3
2018-04-29T11:12:36.954Z,64.4
2018-04-29T11:13:27.268Z,64.4
2018-04-29T11:14:17.902Z,64.4
2018-04-29T11:15:08.006Z,64.5
2018-04-29T11:15:57.270Z,64.5
2018-04-29T11:16:48.103Z,64.6
2018-04-29T11:17:37.031Z,64.6
2018-04-29T11:18:27.236Z,64.6
2018-04-29T11:19:18.032Z,64.7